Ambrie Dupre — WDI2693 — position and weather

sailwx.info

Track history (hours):
 
Tides and Currents Weather Stations Pressure Air Temp Water Temp Dewpoint Dewpoint Depression Visibility Wind Speed Wind Dir Waves Ship Positions

Ambrie Dupre

Owner: Dupre Marine Transportation, LCC, Houma, LA. More information available from US FCC via Universal Licensing System and Coast Guard Vessel Documentation Center.

Last reported at 2017-Nov-27 19:17 UTC. Time now 2017-Dec-15 02:36 UTC.
Position N 29°50' W 091°58'.
Warning: this ship's position is 17 days out of date.

Length 23 m; draft 3 m.

Type: . MMSI: 367680760.

Date/timePositionNaut miles runAvg speedWind from/ knotsBaromVisibWave heightAir tempDewpointWater temp
2017-Nov-27 19:17N 29°50' W 091°58'2 6.1
2017-Nov-27 19:00N 29°50' W 091°60'3 6.1
2017-Nov-27 18:30N 29°49' W 092°03'3 6.1
2017-Nov-27 18:00N 29°48' W 092°06'3 6.1
2017-Nov-27 17:30N 29°47' W 092°10'3 5.0
2017-Nov-27 17:00N 29°47' W 092°12'1 1.5
2017-Nov-27 16:31N 29°48' W 092°13'2 3.6
2017-Nov-27 16:00N 29°48' W 092°15'3 5.6
2017-Nov-27 15:31N 29°50' W 092°18'4 4.5
2017-Nov-27 14:43N 29°51' W 092°22'26 5.4
2017-Nov-27 09:59N 29°58' W 092°50'3 5.8
2017-Nov-27 09:30N 29°57' W 092°53'3 5.5
2017-Nov-27 09:00N 29°56' W 092°56'2 5.0
2017-Nov-27 08:30N 29°56' W 092°59'2 4.3
2017-Nov-27 08:00N 29°56' W 093°02'2 3.3
2017-Nov-27 07:30N 29°56' W 093°04'3 5.3
2017-Nov-27 07:00N 29°56' W 093°07'3 5.3
2017-Nov-27 06:30N 29°56' W 093°10'3 5.6
2017-Nov-27 06:00N 29°58' W 093°12'3 5.4
2017-Nov-27 05:30N 30°00' W 093°14'2 5.0
2017-Nov-27 05:00N 30°02' W 093°15'2 5.0
2017-Nov-27 04:31N 30°05' W 093°17'1 2.7
2017-Nov-27 04:00N 30°05' W 093°18'1 1.6
2017-Nov-27 03:30N 30°06' W 093°18'0 0.0
2017-Nov-27 03:00N 30°06' W 093°18'1 1.6
2017-Nov-27 02:30N 30°06' W 093°19'3 6.5
2017-Nov-27 02:00N 30°04' W 093°22'0 0.3
2017-Nov-27 01:30N 30°04' W 093°22'0 0.1
2017-Nov-27 01:01N 30°04' W 093°22'1 2.1
2017-Nov-27 00:30N 30°04' W 093°23'3 5.3
2017-Nov-27 00:00N 30°04' W 093°26'3 5.4
2017-Nov-26 23:31N 30°04' W 093°29'3 5.7
2017-Nov-26 23:00N 30°04' W 093°33'3 5.7
2017-Nov-26 22:30N 30°04' W 093°36'2 4.7
2017-Nov-26 22:00N 30°04' W 093°39'72 4.3
2017-Nov-26 05:09N 29°23' W 094°47'8 4.1
2017-Nov-26 03:10N 29°30' W 094°52'1 6.0
2017-Nov-26 02:55N 29°31' W 094°53'3 6.1
2017-Nov-26 02:30N 29°33' W 094°54'3 6.5
2017-Nov-26 02:00N 29°36' W 094°56'3 6.5
2017-Nov-26 01:30N 29°38' W 094°58'3 6.8
2017-Nov-26 01:00N 29°42' W 094°59'3 5.5
2017-Nov-26 00:30N 29°44' W 095°02'3 5.8
2017-Nov-25 23:58N 29°46' W 095°04'1 0.6
2017-Nov-25 22:43N 29°46' W 095°05'1 1.4
2017-Nov-25 21:59N 29°46' W 095°06'0 0.1
2017-Nov-25 15:25N 29°46' W 095°06'2 3.7
2017-Nov-25 15:00N 29°47' W 095°05'0 0.0
2017-Nov-25 14:31N 29°47' W 095°05'0 0.0
2017-Nov-25 13:59N 29°47' W 095°05'0 0.0
2017-Nov-25 13:21N 29°47' W 095°05'0 0.0
2017-Nov-25 11:56N 29°47' W 095°05'0 0.0
2017-Nov-25 11:26N 29°47' W 095°05'0 0.0
2017-Nov-25 10:59N 29°47' W 095°05'0 0.0
2017-Nov-25 10:29N 29°47' W 095°05'0 0.0
2017-Nov-25 10:00N 29°47' W 095°05'0 0.0
2017-Nov-25 09:30N 29°47' W 095°05'0 0.0
2017-Nov-25 08:58N 29°47' W 095°05'0 0.0
2017-Nov-25 08:30N 29°47' W 095°05'0 0.0
2017-Nov-25 07:59N 29°47' W 095°05'0 0.0
2017-Nov-25 07:30N 29°47' W 095°05'0 0.0
2017-Nov-25 07:00N 29°47' W 095°05'0 0.8
2017-Nov-25 06:30N 29°47' W 095°04'2 4.1
2017-Nov-25 06:00N 29°45' W 095°06'3 6.2
2017-Nov-25 05:30N 29°44' W 095°09'3 5.9
2017-Nov-25 05:00N 29°44' W 095°12'2 3.9
2017-Nov-25 04:30N 29°43' W 095°14'0 0.0
2017-Nov-24 12:51N 29°43' W 095°14'1 3.3
2017-Nov-24 12:30N 29°44' W 095°13'2 4.8
2017-Nov-24 12:00N 29°45' W 095°10'2 5.1
2017-Nov-24 11:30N 29°44' W 095°07'3 4.7
2017-Nov-24 10:48N 29°47' W 095°05'0 0.3
2017-Nov-24 09:22N 29°47' W 095°04'1 0.0
2017-Nov-23 06:47N 29°46' W 095°04'1 0.5
2017-Nov-23 04:48N 29°46' W 095°05'1 1.7
2017-Nov-23 04:27N 29°45' W 095°06'0 0.0
2017-Nov-23 03:57N 29°45' W 095°06'0 0.1
2017-Nov-23 00:28N 29°46' W 095°06'1 0.6
2017-Nov-22 22:06N 29°47' W 095°04'1 4.1
2017-Nov-22 21:50N 29°46' W 095°05'2 5.8
2017-Nov-22 21:30N 29°44' W 095°03'3 5.7
2017-Nov-22 20:59N 29°42' W 095°01'3 5.5
2017-Nov-22 20:31N 29°41' W 094°59'3 6.7
2017-Nov-22 20:01N 29°37' W 094°57'4 7.0
2017-Nov-22 19:31N 29°34' W 094°55'  
Track history (hours):
 
Tides and Currents Weather Stations Pressure Air Temp Water Temp Dewpoint Dewpoint Depression Visibility Wind Speed Wind Dir Waves Ship Positions

Ambrie Dupre

Owner: Dupre Marine Transportation, LCC, Houma, LA. More information available from US FCC via Universal Licensing System and Coast Guard Vessel Documentation Center.

Last reported at 2017-Nov-27 19:17 UTC. Time now 2017-Dec-15 02:36 UTC.
Position N 29°50' W 091°58'.
Warning: this ship's position is 17 days out of date.

Length 23 m; draft 3 m.

Type: . MMSI: 367680760.

Date/timePositionNaut miles runAvg speedWind from/ knotsBaromVisibWave heightAir tempDewpointWater temp
2017-Nov-27 19:17N 29°50' W 091°58'2 6.1
2017-Nov-27 19:00N 29°50' W 091°60'3 6.1
2017-Nov-27 18:30N 29°49' W 092°03'3 6.1
2017-Nov-27 18:00N 29°48' W 092°06'3 6.1
2017-Nov-27 17:30N 29°47' W 092°10'3 5.0
2017-Nov-27 17:00N 29°47' W 092°12'1 1.5
2017-Nov-27 16:31N 29°48' W 092°13'2 3.6
2017-Nov-27 16:00N 29°48' W 092°15'3 5.6
2017-Nov-27 15:31N 29°50' W 092°18'4 4.5
2017-Nov-27 14:43N 29°51' W 092°22'26 5.4
2017-Nov-27 09:59N 29°58' W 092°50'3 5.8
2017-Nov-27 09:30N 29°57' W 092°53'3 5.5
2017-Nov-27 09:00N 29°56' W 092°56'2 5.0
2017-Nov-27 08:30N 29°56' W 092°59'2 4.3
2017-Nov-27 08:00N 29°56' W 093°02'2 3.3
2017-Nov-27 07:30N 29°56' W 093°04'3 5.3
2017-Nov-27 07:00N 29°56' W 093°07'3 5.3
2017-Nov-27 06:30N 29°56' W 093°10'3 5.6
2017-Nov-27 06:00N 29°58' W 093°12'3 5.4
2017-Nov-27 05:30N 30°00' W 093°14'2 5.0
2017-Nov-27 05:00N 30°02' W 093°15'2 5.0
2017-Nov-27 04:31N 30°05' W 093°17'1 2.7
2017-Nov-27 04:00N 30°05' W 093°18'1 1.6
2017-Nov-27 03:30N 30°06' W 093°18'0 0.0
2017-Nov-27 03:00N 30°06' W 093°18'1 1.6
2017-Nov-27 02:30N 30°06' W 093°19'3 6.5
2017-Nov-27 02:00N 30°04' W 093°22'0 0.3
2017-Nov-27 01:30N 30°04' W 093°22'0 0.1
2017-Nov-27 01:01N 30°04' W 093°22'1 2.1
2017-Nov-27 00:30N 30°04' W 093°23'3 5.3
2017-Nov-27 00:00N 30°04' W 093°26'3 5.4
2017-Nov-26 23:31N 30°04' W 093°29'3 5.7
2017-Nov-26 23:00N 30°04' W 093°33'3 5.7
2017-Nov-26 22:30N 30°04' W 093°36'2 4.7
2017-Nov-26 22:00N 30°04' W 093°39'72 4.3
2017-Nov-26 05:09N 29°23' W 094°47'8 4.1
2017-Nov-26 03:10N 29°30' W 094°52'1 6.0
2017-Nov-26 02:55N 29°31' W 094°53'3 6.1
2017-Nov-26 02:30N 29°33' W 094°54'3 6.5
2017-Nov-26 02:00N 29°36' W 094°56'3 6.5
2017-Nov-26 01:30N 29°38' W 094°58'3 6.8
2017-Nov-26 01:00N 29°42' W 094°59'3 5.5
2017-Nov-26 00:30N 29°44' W 095°02'3 5.8
2017-Nov-25 23:58N 29°46' W 095°04'1 0.6
2017-Nov-25 22:43N 29°46' W 095°05'1 1.4
2017-Nov-25 21:59N 29°46' W 095°06'0 0.1
2017-Nov-25 15:25N 29°46' W 095°06'2 3.7
2017-Nov-25 15:00N 29°47' W 095°05'0 0.0
2017-Nov-25 14:31N 29°47' W 095°05'0 0.0
2017-Nov-25 13:59N 29°47' W 095°05'0 0.0
2017-Nov-25 13:21N 29°47' W 095°05'0 0.0
2017-Nov-25 11:56N 29°47' W 095°05'0 0.0
2017-Nov-25 11:26N 29°47' W 095°05'0 0.0
2017-Nov-25 10:59N 29°47' W 095°05'0 0.0
2017-Nov-25 10:29N 29°47' W 095°05'0 0.0
2017-Nov-25 10:00N 29°47' W 095°05'0 0.0
2017-Nov-25 09:30N 29°47' W 095°05'0 0.0
2017-Nov-25 08:58N 29°47' W 095°05'0 0.0
2017-Nov-25 08:30N 29°47' W 095°05'0 0.0
2017-Nov-25 07:59N 29°47' W 095°05'0 0.0
2017-Nov-25 07:30N 29°47' W 095°05'0 0.0
2017-Nov-25 07:00N 29°47' W 095°05'0 0.8
2017-Nov-25 06:30N 29°47' W 095°04'2 4.1
2017-Nov-25 06:00N 29°45' W 095°06'3 6.2
2017-Nov-25 05:30N 29°44' W 095°09'3 5.9
2017-Nov-25 05:00N 29°44' W 095°12'2 3.9
2017-Nov-25 04:30N 29°43' W 095°14'0 0.0
2017-Nov-24 12:51N 29°43' W 095°14'1 3.3
2017-Nov-24 12:30N 29°44' W 095°13'2 4.8
2017-Nov-24 12:00N 29°45' W 095°10'2 5.1
2017-Nov-24 11:30N 29°44' W 095°07'3 4.7
2017-Nov-24 10:48N 29°47' W 095°05'0 0.3
2017-Nov-24 09:22N 29°47' W 095°04'1 0.0
2017-Nov-23 06:47N 29°46' W 095°04'1 0.5
2017-Nov-23 04:48N 29°46' W 095°05'1 1.7
2017-Nov-23 04:27N 29°45' W 095°06'0 0.0
2017-Nov-23 03:57N 29°45' W 095°06'0 0.1
2017-Nov-23 00:28N 29°46' W 095°06'1 0.6
2017-Nov-22 22:06N 29°47' W 095°04'1 4.1
2017-Nov-22 21:50N 29°46' W 095°05'2 5.8
2017-Nov-22 21:30N 29°44' W 095°03'3 5.7
2017-Nov-22 20:59N 29°42' W 095°01'3 5.5
2017-Nov-22 20:31N 29°41' W 094°59'3 6.7
2017-Nov-22 20:01N 29°37' W 094°57'4 7.0
2017-Nov-22 19:31N 29°34' W 094°55'  

Dump ship's entire track history